Alligator, MS

11:23 PM CDT on March 28, 2015 (GMT -0500)
Clarksdale | | Change Station
CLOSE
Current Station
Personal Weather Station
Location: Clarksdale, MS
Elevation: 164 ft
Nearby Weather Stations
Active Advisory: Flood Advisory

Elev 164 ft 34.10 °N, 90.61 °W | Updated 1 second ago

Clear
Clear
38.7 °F
Feels Like 39 °F
N
0.0
Wind Variable Wind from East
Gusts 5.0 mph

Today
High -- | Low -- °F
--% Chance of Precip.
Yesterday
High -- | Low -- °F
Precip. -- in
6:56 AM 7:20 PM
Waxing Gibbous, 68% visible
Pressure 30.29 in
Visibility 10.0 miles
Clouds Clear
Windchill 39 °F
Dew Point 34 °F
Humidity 82%
Rainfall in
Snow Depth Not available.
UV 0 out of 12
Pollen 7.00 out of 12
Air Quality Not available.
Flu Activity Not available.
METAR KRNV 290355Z AUTO 08007KT 10SM CLR 04/02 A3029 RMK AO2 T00410015

More Conditions Fewer Conditions

Pressure 30.29 in
Visibility 10.0 miles
Clouds Clear
Windchill 39 °F
Dew Point 34 °F
Humidity 82%
Rainfall in
Snow Depth Not available.
UV 0 out of 12
Pollen 7.00 out of 12
Air Quality Not available.
Flu Activity Not available.
METAR KRNV 290355Z AUTO 08007KT 10SM CLR 04/02 A3029 RMK AO2 T00410015

More Conditions Fewer Conditions

10-Day Weather Forecast

Almanac

Astronomy

Mar. 28, 2015 Rise Set
Actual Time
Civil Twilight
Nautical Twilight
Astronomical Twilight
Moon
Length of Visible Light
Length of Day
Tomorrow will be .
, % of the Moon is Illuminated

Today's Extremes

State Highs State Lows

Community

WunderPhotos

Upload Photos

1,809,185 photos uploaded!

WunderBlogs® & News

Nearby

Air Quality

  Air Quality AQ Index Pollutant
Not available.

Snow Depth

Station Depth Elevation

Earthquake Activity

City Distance Mag. Time & Date
Minimum magnitude displayed is 2.5.

Coastal Water Temperatures

Place Temperature

Stations

Nearby Weather Stations

Station Location Temp. Windchill Dew Point Humidity Wind Precip. Elev Updated Type
                   
Flood Advisory
Statement as of 10:40 AM CDT on March 28, 2015

The Flood Advisory continues for
the Mississippi River near Arkansas City.
* Until Tuesday afternoon.
* At 10:00 am Saturday the stage was 35.2 feet.
* Flood stage is 37.0 feet.
* Forecast... the river will crest at 35.2 feet within the next 24 hours
and then begin falling tomorrow afternoon.
* Impact... at 35.0 feet... the Road to Donaldson Point is cut off.


              Flood observed forecast 7 am crest
location stg stg day time sun Mon Tue crest time date

Lower Mississippi River
Arkansas City 37 35.2 Sat 10 am 35.2 35.0 34.8 near crest




Lat... Lon 3340 9128 3357 9128 3413 9108 3412 9066
      3358 9106 3340 9105